sensor_id;sensor_type;location;lat;lon;timestamp;temperature;humidity
8475;DHT22;4274;52.012;8.448;2023-03-01T00:00:37;-1.00;99.90
8475;DHT22;4274;52.012;8.448;2023-03-01T00:03:03;-1.00;99.90
8475;DHT22;4274;52.012;8.448;2023-03-01T00:05:29;-1.00;99.90
8475;DHT22;4274;52.012;8.448;2023-03-01T00:07:54;-1.10;99.90
8475;DHT22;4274;52.012;8.448;2023-03-01T00:10:20;-1.10;99.90
8475;DHT22;4274;52.012;8.448;2023-03-01T00:12:45;-1.20;99.90
8475;DHT22;4274;52.012;8.448;2023-03-01T00:15:11;-1.20;99.90
8475;DHT22;4274;52.012;8.448;2023-03-01T00:17:37;-1.10;99.90
8475;DHT22;4274;52.012;8.448;2023-03-01T00:20:03;-1.10;99.90
8475;DHT22;4274;52.012;8.448;2023-03-01T00:22:33;-1.20;99.90
8475;DHT22;4274;52.012;8.448;2023-03-01T00:24:58;-1.30;99.90
8475;DHT22;4274;52.012;8.448;2023-03-01T00:27:24;-1.40;99.90
8475;DHT22;4274;52.012;8.448;2023-03-01T00:29:49;-1.40;99.90
8475;DHT22;4274;52.012;8.448;2023-03-01T00:32:15;-1.40;99.90
8475;DHT22;4274;52.012;8.448;2023-03-01T00:34:40;-1.50;99.90
8475;DHT22;4274;52.012;8.448;2023-03-01T00:37:06;-1.50;99.90
8475;DHT22;4274;52.012;8.448;2023-03-01T00:39:32;-1.50;99.90
8475;DHT22;4274;52.012;8.448;2023-03-01T00:41:58;-1.60;99.90
8475;DHT22;4274;52.012;8.448;2023-03-01T00:44:24;-1.60;99.90
8475;DHT22;4274;52.012;8.448;2023-03-01T00:46:49;-1.60;99.90
8475;DHT22;4274;52.012;8.448;2023-03-01T00:49:15;-1.60;99.90
8475;DHT22;4274;52.012;8.448;2023-03-01T00:51:40;-1.60;99.90
8475;DHT22;4274;52.012;8.448;2023-03-01T00:54:09;-1.60;99.90
8475;DHT22;4274;52.012;8.448;2023-03-01T00:56:35;-1.60;99.90
8475;DHT22;4274;52.012;8.448;2023-03-01T00:59:01;-1.70;99.90
8475;DHT22;4274;52.012;8.448;2023-03-01T01:01:28;-1.60;99.90
8475;DHT22;4274;52.012;8.448;2023-03-01T01:04:05;-1.50;99.90
8475;DHT22;4274;52.012;8.448;2023-03-01T01:06:37;-1.50;99.90
8475;DHT22;4274;52.012;8.448;2023-03-01T01:09:06;-1.50;99.90
8475;DHT22;4274;52.012;8.448;2023-03-01T01:11:32;-1.40;99.90
8475;DHT22;4274;52.012;8.448;2023-03-01T01:13:58;-1.40;99.90
8475;DHT22;4274;52.012;8.448;2023-03-01T01:16:26;-1.30;99.90
8475;DHT22;4274;52.012;8.448;2023-03-01T01:18:53;-1.20;99.90
8475;DHT22;4274;52.012;8.448;2023-03-01T01:21:21;-1.20;99.90
8475;DHT22;4274;52.012;8.448;2023-03-01T01:23:47;-1.20;99.90
8475;DHT22;4274;52.012;8.448;2023-03-01T01:26:16;-1.10;99.90
8475;DHT22;4274;52.012;8.448;2023-03-01T01:28:42;-1.10;99.90
8475;DHT22;4274;52.012;8.448;2023-03-01T01:31:08;-1.10;99.90
8475;DHT22;4274;52.012;8.448;2023-03-01T01:33:34;-1.10;99.90
8475;DHT22;4274;52.012;8.448;2023-03-01T01:35:59;-1.10;99.90
8475;DHT22;4274;52.012;8.448;2023-03-01T01:38:25;-1.20;99.90
8475;DHT22;4274;52.012;8.448;2023-03-01T01:40:51;-1.20;99.90
8475;DHT22;4274;52.012;8.448;2023-03-01T01:43:28;-1.30;99.90
8475;DHT22;4274;52.012;8.448;2023-03-01T01:46:01;-1.30;99.90
8475;DHT22;4274;52.012;8.448;2023-03-01T01:48:34;-1.40;99.90
8475;DHT22;4274;52.012;8.448;2023-03-01T01:51:08;-1.40;99.90
8475;DHT22;4274;52.012;8.448;2023-03-01T01:53:34;-1.40;99.90
8475;DHT22;4274;52.012;8.448;2023-03-01T01:56:01;-1.40;99.90
8475;DHT22;4274;52.012;8.448;2023-03-01T01:58:29;-1.40;99.90
8475;DHT22;4274;52.012;8.448;2023-03-01T02:00:55;-1.50;99.90
8475;DHT22;4274;52.012;8.448;2023-03-01T02:03:33;-1.50;99.90
8475;DHT22;4274;52.012;8.448;2023-03-01T02:08:30;-1.40;99.90
8475;DHT22;4274;52.012;8.448;2023-03-01T02:10:58;-1.40;99.90
8475;DHT22;4274;52.012;8.448;2023-03-01T02:13:25;-1.30;99.90
8475;DHT22;4274;52.012;8.448;2023-03-01T02:15:51;-1.30;99.90
8475;DHT22;4274;52.012;8.448;2023-03-01T02:18:18;-1.30;99.90
8475;DHT22;4274;52.012;8.448;2023-03-01T02:23:13;-1.30;99.90
8475;DHT22;4274;52.012;8.448;2023-03-01T02:30:59;-1.30;99.90
8475;DHT22;4274;52.012;8.448;2023-03-01T02:33:45;-1.30;99.90
8475;DHT22;4274;52.012;8.448;2023-03-01T02:36:26;-1.40;99.90
8475;DHT22;4274;52.012;8.448;2023-03-01T02:38:57;-1.40;99.90
8475;DHT22;4274;52.012;8.448;2023-03-01T02:41:25;-1.40;99.90
8475;DHT22;4274;52.012;8.448;2023-03-01T02:43:52;-1.40;99.90
8475;DHT22;4274;52.012;8.448;2023-03-01T02:46:22;-1.50;99.90
8475;DHT22;4274;52.012;8.448;2023-03-01T02:48:54;-1.50;99.90
8475;DHT22;4274;52.012;8.448;2023-03-01T02:56:24;-1.50;99.90
8475;DHT22;4274;52.012;8.448;2023-03-01T02:58:50;-1.50;99.90
8475;DHT22;4274;52.012;8.448;2023-03-01T03:01:18;-1.60;99.90
8475;DHT22;4274;52.012;8.448;2023-03-01T03:03:44;-1.60;99.90
8475;DHT22;4274;52.012;8.448;2023-03-01T03:06:09;-1.60;99.90
8475;DHT22;4274;52.012;8.448;2023-03-01T03:08:35;-1.60;99.90
8475;DHT22;4274;52.012;8.448;2023-03-01T03:11:00;-1.60;99.90
8475;DHT22;4274;52.012;8.448;2023-03-01T03:13:26;-1.60;99.90
8475;DHT22;4274;52.012;8.448;2023-03-01T03:15:54;-1.60;99.90
8475;DHT22;4274;52.012;8.448;2023-03-01T03:18:21;-1.60;99.90
8475;DHT22;4274;52.012;8.448;2023-03-01T03:20:47;-1.60;99.90
8475;DHT22;4274;52.012;8.448;2023-03-01T03:23:13;-1.60;99.90
8475;DHT22;4274;52.012;8.448;2023-03-01T03:25:39;-1.70;99.90
8475;DHT22;4274;52.012;8.448;2023-03-01T03:28:05;-1.70;99.90
8475;DHT22;4274;52.012;8.448;2023-03-01T03:30:37;-1.70;99.90
8475;DHT22;4274;52.012;8.448;2023-03-01T03:33:04;-1.70;99.90
8475;DHT22;4274;52.012;8.448;2023-03-01T03:35:42;-1.70;99.90
8475;DHT22;4274;52.012;8.448;2023-03-01T03:38:09;-1.80;99.90
8475;DHT22;4274;52.012;8.448;2023-03-01T03:40:43;-1.80;99.90
8475;DHT22;4274;52.012;8.448;2023-03-01T03:43:12;-1.80;99.90
8475;DHT22;4274;52.012;8.448;2023-03-01T03:45:38;-1.80;99.90
8475;DHT22;4274;52.012;8.448;2023-03-01T03:48:05;-1.80;99.90
8475;DHT22;4274;52.012;8.448;2023-03-01T03:50:31;-1.90;99.90
8475;DHT22;4274;52.012;8.448;2023-03-01T03:52:57;-1.90;99.90
8475;DHT22;4274;52.012;8.448;2023-03-01T03:55:22;-1.90;99.90
8475;DHT22;4274;52.012;8.448;2023-03-01T03:57:48;-1.90;99.90
8475;DHT22;4274;52.012;8.448;2023-03-01T04:00:19;-2.00;99.90
8475;DHT22;4274;52.012;8.448;2023-03-01T04:02:46;-2.00;99.90
8475;DHT22;4274;52.012;8.448;2023-03-01T04:05:14;-2.00;99.90
8475;DHT22;4274;52.012;8.448;2023-03-01T04:07:41;-2.00;99.90
8475;DHT22;4274;52.012;8.448;2023-03-01T04:10:10;-2.00;99.90
8475;DHT22;4274;52.012;8.448;2023-03-01T04:12:36;-2.00;99.90
8475;DHT22;4274;52.012;8.448;2023-03-01T04:15:06;-2.00;99.90
8475;DHT22;4274;52.012;8.448;2023-03-01T04:17:45;-2.00;99.90
8475;DHT22;4274;52.012;8.448;2023-03-01T04:20:14;-2.00;99.90
8475;DHT22;4274;52.012;8.448;2023-03-01T04:22:43;-2.00;99.90
8475;DHT22;4274;52.012;8.448;2023-03-01T04:25:11;-2.00;99.90
8475;DHT22;4274;52.012;8.448;2023-03-01T04:27:40;-2.00;99.90
8475;DHT22;4274;52.012;8.448;2023-03-01T04:30:06;-2.00;99.90
8475;DHT22;4274;52.012;8.448;2023-03-01T04:32:32;-2.00;99.90
8475;DHT22;4274;52.012;8.448;2023-03-01T04:34:57;-2.00;99.90
8475;DHT22;4274;52.012;8.448;2023-03-01T04:37:23;-2.00;99.90
8475;DHT22;4274;52.012;8.448;2023-03-01T04:39:52;-2.00;99.90
8475;DHT22;4274;52.012;8.448;2023-03-01T04:42:18;-2.00;99.90
8475;DHT22;4274;52.012;8.448;2023-03-01T04:44:44;-2.00;99.90
8475;DHT22;4274;52.012;8.448;2023-03-01T04:47:10;-2.10;99.90
8475;DHT22;4274;52.012;8.448;2023-03-01T04:49:36;-2.10;99.90
8475;DHT22;4274;52.012;8.448;2023-03-01T04:52:03;-2.10;99.90
8475;DHT22;4274;52.012;8.448;2023-03-01T04:54:34;-2.10;99.90
8475;DHT22;4274;52.012;8.448;2023-03-01T04:56:59;-2.20;99.90
8475;DHT22;4274;52.012;8.448;2023-03-01T04:59:25;-2.20;99.90
8475;DHT22;4274;52.012;8.448;2023-03-01T05:01:52;-2.20;99.90
8475;DHT22;4274;52.012;8.448;2023-03-01T05:04:21;-2.30;99.90
8475;DHT22;4274;52.012;8.448;2023-03-01T05:06:46;-2.30;99.90
8475;DHT22;4274;52.012;8.448;2023-03-01T05:09:12;-2.30;99.90
8475;DHT22;4274;52.012;8.448;2023-03-01T05:11:38;-2.30;99.90
8475;DHT22;4274;52.012;8.448;2023-03-01T05:14:04;-2.20;99.90
8475;DHT22;4274;52.012;8.448;2023-03-01T05:16:30;-2.10;99.90
8475;DHT22;4274;52.012;8.448;2023-03-01T05:18:57;-2.10;99.90
8475;DHT22;4274;52.012;8.448;2023-03-01T05:21:23;-2.10;99.90
8475;DHT22;4274;52.012;8.448;2023-03-01T05:23:49;-2.10;99.90
8475;DHT22;4274;52.012;8.448;2023-03-01T05:26:16;-2.10;99.90
8475;DHT22;4274;52.012;8.448;2023-03-01T05:28:43;-2.10;99.90
8475;DHT22;4274;52.012;8.448;2023-03-01T05:31:09;-2.10;99.90
8475;DHT22;4274;52.012;8.448;2023-03-01T05:33:37;-2.10;99.90
8475;DHT22;4274;52.012;8.448;2023-03-01T05:36:03;-2.10;99.90
8475;DHT22;4274;52.012;8.448;2023-03-01T05:38:29;-2.10;99.90
8475;DHT22;4274;52.012;8.448;2023-03-01T05:40:55;-2.20;99.90
8475;DHT22;4274;52.012;8.448;2023-03-01T05:43:20;-2.20;99.90
8475;DHT22;4274;52.012;8.448;2023-03-01T05:45:46;-2.20;99.90
8475;DHT22;4274;52.012;8.448;2023-03-01T05:48:13;-2.20;99.90
8475;DHT22;4274;52.012;8.448;2023-03-01T05:50:44;-2.20;99.90
8475;DHT22;4274;52.012;8.448;2023-03-01T05:53:15;-2.30;99.90
8475;DHT22;4274;52.012;8.448;2023-03-01T05:55:41;-2.20;99.90
8475;DHT22;4274;52.012;8.448;2023-03-01T05:58:11;-2.20;99.90
8475;DHT22;4274;52.012;8.448;2023-03-01T06:00:37;-2.20;99.90
8475;DHT22;4274;52.012;8.448;2023-03-01T06:03:03;-2.30;99.90
8475;DHT22;4274;52.012;8.448;2023-03-01T06:05:29;-2.30;99.90
8475;DHT22;4274;52.012;8.448;2023-03-01T06:07:55;-2.20;99.90
8475;DHT22;4274;52.012;8.448;2023-03-01T06:10:23;-2.30;99.90
8475;DHT22;4274;52.012;8.448;2023-03-01T06:12:49;-2.30;99.90
8475;DHT22;4274;52.012;8.448;2023-03-01T06:15:16;-2.30;99.90
8475;DHT22;4274;52.012;8.448;2023-03-01T06:17:43;-2.40;99.90
8475;DHT22;4274;52.012;8.448;2023-03-01T06:20:20;-2.40;99.90
8475;DHT22;4274;52.012;8.448;2023-03-01T06:22:47;-2.40;99.90
8475;DHT22;4274;52.012;8.448;2023-03-01T06:25:15;-2.40;99.90
8475;DHT22;4274;52.012;8.448;2023-03-01T06:27:41;-2.40;99.90
8475;DHT22;4274;52.012;8.448;2023-03-01T06:30:09;-2.40;99.90
8475;DHT22;4274;52.012;8.448;2023-03-01T06:32:36;-2.40;99.90
8475;DHT22;4274;52.012;8.448;2023-03-01T06:35:03;-2.40;99.90
8475;DHT22;4274;52.012;8.448;2023-03-01T06:37:28;-2.40;99.90
8475;DHT22;4274;52.012;8.448;2023-03-01T06:39:54;-2.40;99.90
8475;DHT22;4274;52.012;8.448;2023-03-01T06:42:19;-2.40;99.90
8475;DHT22;4274;52.012;8.448;2023-03-01T06:44:45;-2.40;99.90
8475;DHT22;4274;52.012;8.448;2023-03-01T06:47:11;-2.30;99.90
8475;DHT22;4274;52.012;8.448;2023-03-01T06:49:36;-2.20;99.90
8475;DHT22;4274;52.012;8.448;2023-03-01T06:52:02;-2.20;99.90
8475;DHT22;4274;52.012;8.448;2023-03-01T06:54:28;-2.10;99.90
8475;DHT22;4274;52.012;8.448;2023-03-01T06:56:53;-1.90;99.90
8475;DHT22;4274;52.012;8.448;2023-03-01T06:59:19;-1.80;99.90
8475;DHT22;4274;52.012;8.448;2023-03-01T07:01:44;-1.70;99.90
8475;DHT22;4274;52.012;8.448;2023-03-01T07:04:11;-1.60;99.90
8475;DHT22;4274;52.012;8.448;2023-03-01T07:06:37;-1.60;99.90
8475;DHT22;4274;52.012;8.448;2023-03-01T07:09:03;-1.50;99.90
8475;DHT22;4274;52.012;8.448;2023-03-01T07:11:28;-1.40;99.90
8475;DHT22;4274;52.012;8.448;2023-03-01T07:13:54;-1.30;99.90
8475;DHT22;4274;52.012;8.448;2023-03-01T07:16:20;-1.30;99.90
8475;DHT22;4274;52.012;8.448;2023-03-01T07:18:46;-1.20;99.90
8475;DHT22;4274;52.012;8.448;2023-03-01T07:21:13;-1.20;99.90
8475;DHT22;4274;52.012;8.448;2023-03-01T07:23:39;-1.10;99.90
8475;DHT22;4274;52.012;8.448;2023-03-01T07:26:05;-1.00;99.90
8475;DHT22;4274;52.012;8.448;2023-03-01T07:28:31;-0.90;99.90
8475;DHT22;4274;52.012;8.448;2023-03-01T07:31:02;-0.80;99.90
8475;DHT22;4274;52.012;8.448;2023-03-01T07:33:27;-0.80;99.90
8475;DHT22;4274;52.012;8.448;2023-03-01T07:35:57;-0.70;99.90
8475;DHT22;4274;52.012;8.448;2023-03-01T07:38:23;-0.60;99.90
8475;DHT22;4274;52.012;8.448;2023-03-01T07:40:49;-0.50;99.90
8475;DHT22;4274;52.012;8.448;2023-03-01T07:43:14;-0.50;99.90
8475;DHT22;4274;52.012;8.448;2023-03-01T07:45:40;-0.40;99.90
8475;DHT22;4274;52.012;8.448;2023-03-01T07:48:05;-0.30;99.90
8475;DHT22;4274;52.012;8.448;2023-03-01T07:50:31;-0.20;99.90
8475;DHT22;4274;52.012;8.448;2023-03-01T07:52:57;-0.10;99.90
8475;DHT22;4274;52.012;8.448;2023-03-01T07:55:22;0.00;99.90
8475;DHT22;4274;52.012;8.448;2023-03-01T07:57:48;0.20;99.90
8475;DHT22;4274;52.012;8.448;2023-03-01T08:00:14;0.40;99.90
8475;DHT22;4274;52.012;8.448;2023-03-01T08:02:40;0.60;99.90
8475;DHT22;4274;52.012;8.448;2023-03-01T08:05:07;0.90;99.90
8475;DHT22;4274;52.012;8.448;2023-03-01T08:07:34;1.30;99.90
8475;DHT22;4274;52.012;8.448;2023-03-01T08:09:59;1.90;99.90
8475;DHT22;4274;52.012;8.448;2023-03-01T08:12:25;2.70;99.90
8475;DHT22;4274;52.012;8.448;2023-03-01T08:14:52;3.50;99.90
8475;DHT22;4274;52.012;8.448;2023-03-01T08:17:18;4.20;99.90
8475;DHT22;4274;52.012;8.448;2023-03-01T08:19:44;4.80;99.90
8475;DHT22;4274;52.012;8.448;2023-03-01T08:22:10;5.40;99.90
8475;DHT22;4274;52.012;8.448;2023-03-01T08:24:36;5.80;99.90
8475;DHT22;4274;52.012;8.448;2023-03-01T08:27:01;6.10;99.90
8475;DHT22;4274;52.012;8.448;2023-03-01T08:29:30;6.40;99.90
8475;DHT22;4274;52.012;8.448;2023-03-01T08:31:55;6.70;99.90
8475;DHT22;4274;52.012;8.448;2023-03-01T08:34:21;6.90;99.90
8475;DHT22;4274;52.012;8.448;2023-03-01T08:36:47;7.10;99.90
8475;DHT22;4274;52.012;8.448;2023-03-01T08:39:14;7.30;99.90
8475;DHT22;4274;52.012;8.448;2023-03-01T08:41:40;7.50;99.50
8475;DHT22;4274;52.012;8.448;2023-03-01T08:44:07;7.60;99.80
8475;DHT22;4274;52.012;8.448;2023-03-01T08:46:35;7.60;98.40
8475;DHT22;4274;52.012;8.448;2023-03-01T08:49:05;7.90;98.80
8475;DHT22;4274;52.012;8.448;2023-03-01T08:51:31;8.00;96.40
8475;DHT22;4274;52.012;8.448;2023-03-01T08:54:20;7.80;97.20
8475;DHT22;4274;52.012;8.448;2023-03-01T08:56:46;7.70;98.20
8475;DHT22;4274;52.012;8.448;2023-03-01T08:59:14;7.70;96.00
8475;DHT22;4274;52.012;8.448;2023-03-01T09:01:40;7.60;95.20
8475;DHT22;4274;52.012;8.448;2023-03-01T09:04:09;7.60;95.50
8475;DHT22;4274;52.012;8.448;2023-03-01T09:06:34;7.70;96.00
8475;DHT22;4274;52.012;8.448;2023-03-01T09:09:01;8.00;94.70
8475;DHT22;4274;52.012;8.448;2023-03-01T09:11:28;8.30;93.50
8475;DHT22;4274;52.012;8.448;2023-03-01T09:13:54;8.40;93.60
8475;DHT22;4274;52.012;8.448;2023-03-01T09:16:21;8.60;93.40
8475;DHT22;4274;52.012;8.448;2023-03-01T09:18:52;8.60;93.10
8475;DHT22;4274;52.012;8.448;2023-03-01T09:21:19;8.40;91.90
8475;DHT22;4274;52.012;8.448;2023-03-01T09:23:47;8.10;93.20
8475;DHT22;4274;52.012;8.448;2023-03-01T09:26:15;8.20;92.20
8475;DHT22;4274;52.012;8.448;2023-03-01T09:28:42;8.30;92.10
8475;DHT22;4274;52.012;8.448;2023-03-01T09:31:08;8.70;91.80
8475;DHT22;4274;52.012;8.448;2023-03-01T09:33:34;8.70;91.70
8475;DHT22;4274;52.012;8.448;2023-03-01T09:36:01;8.70;91.90
8475;DHT22;4274;52.012;8.448;2023-03-01T09:38:27;8.60;91.50
8475;DHT22;4274;52.012;8.448;2023-03-01T09:40:53;8.40;92.00
8475;DHT22;4274;52.012;8.448;2023-03-01T09:43:52;8.10;91.60
8475;DHT22;4274;52.012;8.448;2023-03-01T09:46:20;8.10;91.80
8475;DHT22;4274;52.012;8.448;2023-03-01T09:49:14;8.30;91.80
8475;DHT22;4274;52.012;8.448;2023-03-01T09:51:42;8.70;91.40
8475;DHT22;4274;52.012;8.448;2023-03-01T09:54:10;8.90;91.20
8475;DHT22;4274;52.012;8.448;2023-03-01T09:57:06;8.90;90.90
8475;DHT22;4274;52.012;8.448;2023-03-01T09:59:55;8.90;91.10
8475;DHT22;4274;52.012;8.448;2023-03-01T10:02:47;8.80;91.00
8475;DHT22;4274;52.012;8.448;2023-03-01T10:08:28;9.00;90.90
8475;DHT22;4274;52.012;8.448;2023-03-01T10:10:57;9.20;89.30
8475;DHT22;4274;52.012;8.448;2023-03-01T10:19:05;9.60;87.20
8475;DHT22;4274;52.012;8.448;2023-03-01T10:21:41;9.50;88.20
8475;DHT22;4274;52.012;8.448;2023-03-01T10:24:12;9.70;87.50
8475;DHT22;4274;52.012;8.448;2023-03-01T10:26:58;10.00;86.10
8475;DHT22;4274;52.012;8.448;2023-03-01T10:29:36;9.70;86.20
8475;DHT22;4274;52.012;8.448;2023-03-01T10:32:03;10.00;85.20
8475;DHT22;4274;52.012;8.448;2023-03-01T10:34:34;10.60;85.40
8475;DHT22;4274;52.012;8.448;2023-03-01T10:37:15;11.20;82.30
8475;DHT22;4274;52.012;8.448;2023-03-01T10:42:39;11.90;82.20
8475;DHT22;4274;52.012;8.448;2023-03-01T10:48:26;12.10;79.50
8475;DHT22;4274;52.012;8.448;2023-03-01T10:53:29;11.30;79.80
8475;DHT22;4274;52.012;8.448;2023-03-01T10:56:00;11.70;78.80
8475;DHT22;4274;52.012;8.448;2023-03-01T10:58:27;12.10;80.20
8475;DHT22;4274;52.012;8.448;2023-03-01T11:00:54;12.30;76.70
8475;DHT22;4274;52.012;8.448;2023-03-01T11:03:27;12.50;76.10
8475;DHT22;4274;52.012;8.448;2023-03-01T11:06:05;12.50;76.20
8475;DHT22;4274;52.012;8.448;2023-03-01T11:08:36;12.80;76.70
8475;DHT22;4274;52.012;8.448;2023-03-01T11:11:18;13.30;74.10
8475;DHT22;4274;52.012;8.448;2023-03-01T11:16:42;12.50;72.90
8475;DHT22;4274;52.012;8.448;2023-03-01T11:21:39;12.30;75.90
8475;DHT22;4274;52.012;8.448;2023-03-01T11:24:09;12.90;73.60
8475;DHT22;4274;52.012;8.448;2023-03-01T11:26:38;13.30;72.50
8475;DHT22;4274;52.012;8.448;2023-03-01T11:29:12;13.60;72.00
8475;DHT22;4274;52.012;8.448;2023-03-01T11:31:40;13.80;72.10
8475;DHT22;4274;52.012;8.448;2023-03-01T11:34:13;14.10;71.40
8475;DHT22;4274;52.012;8.448;2023-03-01T11:36:59;14.00;69.80
8475;DHT22;4274;52.012;8.448;2023-03-01T11:39:34;13.90;70.00
8475;DHT22;4274;52.012;8.448;2023-03-01T11:42:17;14.20;70.60
8475;DHT22;4274;52.012;8.448;2023-03-01T11:44:46;15.00;74.40
8475;DHT22;4274;52.012;8.448;2023-03-01T11:55:54;15.70;67.30
8475;DHT22;4274;52.012;8.448;2023-03-01T11:58:27;15.40;64.20
8475;DHT22;4274;52.012;8.448;2023-03-01T12:01:11;14.40;64.50
8475;DHT22;4274;52.012;8.448;2023-03-01T12:06:55;14.00;67.30
8475;DHT22;4274;52.012;8.448;2023-03-01T12:09:33;14.40;68.50
8475;DHT22;4274;52.012;8.448;2023-03-01T12:17:49;15.40;65.10
8475;DHT22;4274;52.012;8.448;2023-03-01T12:23:40;15.30;64.10
8475;DHT22;4274;52.012;8.448;2023-03-01T12:26:31;15.00;63.80
8475;DHT22;4274;52.012;8.448;2023-03-01T12:29:26;14.80;64.00
8475;DHT22;4274;52.012;8.448;2023-03-01T12:40:29;14.60;65.30
8475;DHT22;4274;52.012;8.448;2023-03-01T12:48:50;13.80;62.80
8475;DHT22;4274;52.012;8.448;2023-03-01T12:51:23;12.80;65.60
8475;DHT22;4274;52.012;8.448;2023-03-01T12:53:51;12.80;66.40
8475;DHT22;4274;52.012;8.448;2023-03-01T12:56:25;13.10;62.50
8475;DHT22;4274;52.012;8.448;2023-03-01T13:07:24;12.30;62.20
8475;DHT22;4274;52.012;8.448;2023-03-01T13:10:16;12.10;63.20
8475;DHT22;4274;52.012;8.448;2023-03-01T13:33:58;12.00;65.10
8475;DHT22;4274;52.012;8.448;2023-03-01T13:39:04;12.30;61.60
8475;DHT22;4274;52.012;8.448;2023-03-01T13:49:26;11.70;62.90
8475;DHT22;4274;52.012;8.448;2023-03-01T13:51:52;11.70;64.30
8475;DHT22;4274;52.012;8.448;2023-03-01T13:54:29;11.90;63.00
8475;DHT22;4274;52.012;8.448;2023-03-01T13:56:57;12.30;62.90
8475;DHT22;4274;52.012;8.448;2023-03-01T13:59:23;12.40;62.90
8475;DHT22;4274;52.012;8.448;2023-03-01T14:04:32;12.10;61.80
8475;DHT22;4274;52.012;8.448;2023-03-01T14:07:19;11.80;61.70
8475;DHT22;4274;52.012;8.448;2023-03-01T14:09:49;11.40;62.10
8475;DHT22;4274;52.012;8.448;2023-03-01T14:20:27;11.00;62.70
8475;DHT22;4274;52.012;8.448;2023-03-01T14:22:55;10.80;63.00
8475;DHT22;4274;52.012;8.448;2023-03-01T14:25:25;10.60;63.10
8475;DHT22;4274;52.012;8.448;2023-03-01T14:28:10;10.20;62.60
8475;DHT22;4274;52.012;8.448;2023-03-01T14:30:42;9.80;63.50
8475;DHT22;4274;52.012;8.448;2023-03-01T14:33:26;9.50;64.50
8475;DHT22;4274;52.012;8.448;2023-03-01T14:36:07;9.00;65.50
8475;DHT22;4274;52.012;8.448;2023-03-01T14:38:46;8.60;67.40
8475;DHT22;4274;52.012;8.448;2023-03-01T14:41:24;8.20;67.40
8475;DHT22;4274;52.012;8.448;2023-03-01T14:43:57;7.90;67.30
8475;DHT22;4274;52.012;8.448;2023-03-01T14:46:30;7.60;69.20
8475;DHT22;4274;52.012;8.448;2023-03-01T14:49:19;7.40;69.20
8475;DHT22;4274;52.012;8.448;2023-03-01T14:54:21;7.10;68.90
8475;DHT22;4274;52.012;8.448;2023-03-01T14:56:50;7.00;69.30
8475;DHT22;4274;52.012;8.448;2023-03-01T14:59:21;6.90;68.80
8475;DHT22;4274;52.012;8.448;2023-03-01T15:01:48;6.70;69.20
8475;DHT22;4274;52.012;8.448;2023-03-01T15:04:14;6.70;69.80
8475;DHT22;4274;52.012;8.448;2023-03-01T15:06:40;6.50;70.30
8475;DHT22;4274;52.012;8.448;2023-03-01T15:09:12;6.50;70.90
8475;DHT22;4274;52.012;8.448;2023-03-01T15:11:39;6.50;70.70
8475;DHT22;4274;52.012;8.448;2023-03-01T15:14:27;6.40;71.90
8475;DHT22;4274;52.012;8.448;2023-03-01T15:16:54;6.40;71.60
8475;DHT22;4274;52.012;8.448;2023-03-01T15:19:20;6.40;71.90
8475;DHT22;4274;52.012;8.448;2023-03-01T15:21:49;6.40;70.20
8475;DHT22;4274;52.012;8.448;2023-03-01T15:24:23;6.30;70.70
8475;DHT22;4274;52.012;8.448;2023-03-01T15:27:00;6.30;71.40
8475;DHT22;4274;52.012;8.448;2023-03-01T15:29:33;6.30;71.80
8475;DHT22;4274;52.012;8.448;2023-03-01T15:32:54;6.20;71.80
8475;DHT22;4274;52.012;8.448;2023-03-01T15:35:33;6.10;71.80
8475;DHT22;4274;52.012;8.448;2023-03-01T15:37:48;6.10;72.60
8475;DHT22;4274;52.012;8.448;2023-03-01T15:40:28;6.00;72.90
8475;DHT22;4274;52.012;8.448;2023-03-01T15:43:02;6.00;73.90
8475;DHT22;4274;52.012;8.448;2023-03-01T15:45:30;6.00;73.90
8475;DHT22;4274;52.012;8.448;2023-03-01T15:48:02;6.00;74.70
8475;DHT22;4274;52.012;8.448;2023-03-01T15:52:56;5.90;75.50
8475;DHT22;4274;52.012;8.448;2023-03-01T15:57:49;5.80;76.30
8475;DHT22;4274;52.012;8.448;2023-03-01T16:00:16;5.90;76.60
8475;DHT22;4274;52.012;8.448;2023-03-01T16:02:43;5.80;76.70
8475;DHT22;4274;52.012;8.448;2023-03-01T16:05:22;5.70;77.10
8475;DHT22;4274;52.012;8.448;2023-03-01T16:07:48;5.70;77.30
8475;DHT22;4274;52.012;8.448;2023-03-01T16:10:14;5.60;77.50
8475;DHT22;4274;52.012;8.448;2023-03-01T16:12:40;5.60;77.80
8475;DHT22;4274;52.012;8.448;2023-03-01T16:15:15;5.60;77.80
8475;DHT22;4274;52.012;8.448;2023-03-01T16:17:42;5.50;77.70
8475;DHT22;4274;52.012;8.448;2023-03-01T16:20:08;5.50;77.80
8475;DHT22;4274;52.012;8.448;2023-03-01T16:22:34;5.40;78.30
8475;DHT22;4274;52.012;8.448;2023-03-01T16:24:59;5.40;78.60
8475;DHT22;4274;52.012;8.448;2023-03-01T16:27:25;5.40;79.10
8475;DHT22;4274;52.012;8.448;2023-03-01T16:29:50;5.30;79.30
8475;DHT22;4274;52.012;8.448;2023-03-01T16:32:16;5.30;79.50
8475;DHT22;4274;52.012;8.448;2023-03-01T16:34:42;5.20;79.70
8475;DHT22;4274;52.012;8.448;2023-03-01T16:37:07;5.20;80.20
8475;DHT22;4274;52.012;8.448;2023-03-01T16:39:33;5.10;80.70
8475;DHT22;4274;52.012;8.448;2023-03-01T16:42:00;5.10;81.20
8475;DHT22;4274;52.012;8.448;2023-03-01T16:44:26;5.00;82.10
8475;DHT22;4274;52.012;8.448;2023-03-01T16:46:51;4.90;82.90
8475;DHT22;4274;52.012;8.448;2023-03-01T16:49:17;4.80;83.00
8475;DHT22;4274;52.012;8.448;2023-03-01T16:51:43;4.80;83.70
8475;DHT22;4274;52.012;8.448;2023-03-01T16:54:09;4.70;84.10
8475;DHT22;4274;52.012;8.448;2023-03-01T16:56:36;4.70;84.20
8475;DHT22;4274;52.012;8.448;2023-03-01T16:59:03;4.60;84.90
8475;DHT22;4274;52.012;8.448;2023-03-01T17:01:29;4.50;85.10
8475;DHT22;4274;52.012;8.448;2023-03-01T17:04:03;4.50;85.70
8475;DHT22;4274;52.012;8.448;2023-03-01T17:06:28;4.40;86.40
8475;DHT22;4274;52.012;8.448;2023-03-01T17:08:54;4.40;86.70
8475;DHT22;4274;52.012;8.448;2023-03-01T17:11:20;4.40;87.40
8475;DHT22;4274;52.012;8.448;2023-03-01T17:13:46;4.30;87.40
8475;DHT22;4274;52.012;8.448;2023-03-01T17:16:15;4.30;87.80
8475;DHT22;4274;52.012;8.448;2023-03-01T17:18:42;4.20;88.00
8475;DHT22;4274;52.012;8.448;2023-03-01T17:21:08;4.10;87.90
8475;DHT22;4274;52.012;8.448;2023-03-01T17:23:37;4.00;89.10
8475;DHT22;4274;52.012;8.448;2023-03-01T17:26:03;4.00;90.00
8475;DHT22;4274;52.012;8.448;2023-03-01T17:28:30;3.90;90.10
8475;DHT22;4274;52.012;8.448;2023-03-01T17:30:57;3.80;90.40
8475;DHT22;4274;52.012;8.448;2023-03-01T17:33:23;3.80;90.50
8475;DHT22;4274;52.012;8.448;2023-03-01T17:35:49;3.80;90.80
8475;DHT22;4274;52.012;8.448;2023-03-01T17:38:15;3.70;90.90
8475;DHT22;4274;52.012;8.448;2023-03-01T17:40:41;3.70;91.00
8475;DHT22;4274;52.012;8.448;2023-03-01T17:43:08;3.70;91.40
8475;DHT22;4274;52.012;8.448;2023-03-01T17:45:38;3.60;91.50
8475;DHT22;4274;52.012;8.448;2023-03-01T17:48:04;3.60;91.60
8475;DHT22;4274;52.012;8.448;2023-03-01T17:50:30;3.50;92.00
8475;DHT22;4274;52.012;8.448;2023-03-01T17:52:56;3.50;92.30
8475;DHT22;4274;52.012;8.448;2023-03-01T17:55:23;3.40;92.60
8475;DHT22;4274;52.012;8.448;2023-03-01T17:57:49;3.30;92.80
8475;DHT22;4274;52.012;8.448;2023-03-01T18:00:15;3.30;93.10
8475;DHT22;4274;52.012;8.448;2023-03-01T18:02:42;3.40;93.30
8475;DHT22;4274;52.012;8.448;2023-03-01T18:05:09;3.40;93.10
8475;DHT22;4274;52.012;8.448;2023-03-01T18:07:34;3.30;93.60
8475;DHT22;4274;52.012;8.448;2023-03-01T18:10:00;3.20;93.90
8475;DHT22;4274;52.012;8.448;2023-03-01T18:12:26;3.20;94.20
8475;DHT22;4274;52.012;8.448;2023-03-01T18:14:51;3.10;94.00
8475;DHT22;4274;52.012;8.448;2023-03-01T18:17:21;3.10;94.30
8475;DHT22;4274;52.012;8.448;2023-03-01T18:19:47;3.00;94.40
8475;DHT22;4274;52.012;8.448;2023-03-01T18:22:13;3.00;94.70
8475;DHT22;4274;52.012;8.448;2023-03-01T18:24:40;2.90;94.50
8475;DHT22;4274;52.012;8.448;2023-03-01T18:27:06;2.80;94.60
8475;DHT22;4274;52.012;8.448;2023-03-01T18:29:32;2.80;95.00